Time;durP1;ratioP1;P1;durP2;ratioP2;P2;SDS_P1;SDS_P2;PMS_P1;PMS_P2;Temp;Humidity;BMP_temperature;BMP_pressure;BME280_temperature;BME280_humidity;BME280_pressure;Samples;Min_cycle;Max_cycle;Signal;HPM_P1;HPM_P2
2021/01/18 00:09:33;;;;;;;17.92;6.20;;;4.10;99.90;;;;;;6709773;88;20194;-76
2021/01/18 00:19:34;;;;;;;16.60;7.18;;;4.10;99.90;;;;;;6721660;88;21016;-75
2021/01/18 00:29:34;;;;;;;20.08;7.35;;;4.10;99.90;;;;;;6710864;88;20183;-75
2021/01/18 00:39:36;;;;;;;19.67;7.68;;;4.10;99.90;;;;;;6705026;88;20214;-77
2021/01/18 00:49:36;;;;;;;15.48;6.47;;;4.20;99.90;;;;;;6702944;88;20187;-76
2021/01/18 00:59:37;;;;;;;22.55;7.47;;;4.10;99.90;;;;;;6703171;88;20202;-76
2021/01/18 01:09:37;;;;;;;18.52;8.30;;;4.10;99.90;;;;;;6703377;88;20633;-75
2021/01/18 01:19:38;;;;;;;25.42;9.25;;;4.10;99.90;;;;;;6703243;88;20721;-75
2021/01/18 01:29:38;;;;;;;21.67;9.85;;;4.10;99.90;;;;;;6702834;88;20895;-76
2021/01/18 01:39:39;;;;;;;25.00;9.88;;;4.00;99.90;;;;;;6700656;88;20707;-75
2021/01/18 01:49:40;;;;;;;27.27;11.10;;;4.10;99.90;;;;;;6703517;88;20887;-75
2021/01/18 01:59:40;;;;;;;27.73;10.85;;;4.10;99.90;;;;;;6702881;88;20676;-75
2021/01/18 02:09:41;;;;;;;29.20;10.65;;;4.10;99.90;;;;;;6702927;88;20675;-75
2021/01/18 02:20:02;;;;;;;31.73;10.00;;;4.10;99.90;;;;;;6704035;88;20693;-76
2021/01/18 02:30:11;;;;;;;23.92;10.68;;;4.10;99.90;;;;;;6703599;88;20199;-76
2021/01/18 02:40:22;;;;;;;23.45;9.55;;;4.00;99.90;;;;;;6703775;88;20203;-75
2021/01/18 02:50:23;;;;;;;21.77;8.77;;;4.00;99.90;;;;;;6702544;88;20245;-75
2021/01/18 03:00:33;;;;;;;17.48;8.20;;;3.90;99.90;;;;;;6701311;88;20317;-75
2021/01/18 03:10:47;;;;;;;15.90;7.60;;;4.00;99.90;;;;;;6699481;88;20215;-75
2021/01/18 03:20:49;;;;;;;14.48;6.93;;;3.90;99.90;;;;;;6701980;88;20233;-75
2021/01/18 03:30:50;;;;;;;21.12;7.85;;;3.80;99.90;;;;;;6704137;88;20212;-75
2021/01/18 03:40:52;;;;;;;18.02;7.57;;;3.70;99.90;;;;;;6702518;88;20220;-75
2021/01/18 03:50:52;;;;;;;17.23;6.45;;;3.80;99.90;;;;;;6699053;88;20670;-75
2021/01/18 04:00:53;;;;;;;12.77;6.13;;;3.80;99.90;;;;;;6699566;88;20198;-75
2021/01/18 04:10:53;;;;;;;13.88;5.57;;;3.80;99.90;;;;;;6700555;88;20493;-77
2021/01/18 04:20:54;;;;;;;12.07;5.00;;;3.70;99.90;;;;;;6696452;88;20689;-75
2021/01/18 04:30:55;;;;;;;8.82;4.53;;;3.80;99.90;;;;;;6700425;88;20717;-75
2021/01/18 04:40:55;;;;;;;13.88;5.03;;;3.90;99.90;;;;;;6700577;88;20238;-75
2021/01/18 04:50:56;;;;;;;10.80;5.07;;;3.80;99.90;;;;;;6702984;88;20624;-75
2021/01/18 05:01:03;;;;;;;12.80;4.82;;;3.80;99.90;;;;;;6702998;88;20202;-75
2021/01/18 05:11:04;;;;;;;;;;;3.80;99.90;;;;;;6710972;88;20178;-74
2021/01/18 05:21:06;;;;;;;11.10;4.62;;;3.80;99.90;;;;;;6707728;88;20126;-77
2021/01/18 05:31:07;;;;;;;12.85;5.57;;;3.90;99.90;;;;;;6645024;77;20211;-73
2021/01/18 05:41:08;;;;;;;15.02;5.28;;;3.80;99.90;;;;;;6620189;88;20222;-73
2021/01/18 05:51:09;;;;;;;15.30;5.22;;;3.90;99.90;;;;;;6621020;88;20208;-72
2021/01/18 06:01:09;;;;;;;11.90;4.87;;;3.90;99.90;;;;;;6620989;89;20496;-72
2021/01/18 06:11:10;;;;;;;14.27;5.03;;;4.00;99.90;;;;;;6620152;89;20206;-74
2021/01/18 06:21:12;;;;;;;11.95;4.62;;;4.00;99.90;;;;;;6621296;89;20828;-73
2021/01/18 06:31:15;;;;;;;12.60;4.30;;;4.00;99.90;;;;;;6621920;88;20196;-73
2021/01/18 06:41:22;;;;;;;10.93;3.87;;;4.00;99.90;;;;;;6620602;89;20228;-73
2021/01/18 06:51:25;;;;;;;14.15;4.90;;;4.10;99.90;;;;;;6619176;88;20190;-73
2021/01/18 07:01:33;;;;;;;15.27;5.00;;;3.90;99.90;;;;;;6622523;89;20216;-73
2021/01/18 07:11:34;;;;;;;15.60;5.05;;;3.80;99.90;;;;;;6622759;88;20189;-72
2021/01/18 07:21:35;;;;;;;12.02;5.07;;;3.80;99.90;;;;;;6623898;88;20185;-72
2021/01/18 07:31:36;;;;;;;11.70;4.47;;;3.90;99.90;;;;;;6623029;89;20205;-73
2021/01/18 07:41:37;;;;;;;11.23;4.30;;;3.90;99.90;;;;;;6622770;88;21129;-74
2021/01/18 07:51:38;;;;;;;11.75;4.32;;;3.90;99.90;;;;;;6627787;88;20320;-72
2021/01/18 08:01:39;;;;;;;11.77;3.62;;;4.00;99.90;;;;;;6620673;88;20210;-72
2021/01/18 08:11:39;;;;;;;13.03;4.30;;;4.10;99.90;;;;;;6622687;88;20313;-72
2021/01/18 08:21:42;;;;;;;11.60;4.62;;;4.10;99.90;;;;;;6615865;88;20601;-72
2021/01/18 08:31:43;;;;;;;14.70;4.28;;;4.10;99.90;;;;;;6621549;88;20206;-72
2021/01/18 08:41:46;;;;;;;10.35;4.03;;;4.20;99.90;;;;;;6618108;89;20182;-72
2021/01/18 08:51:48;;;;;;;9.55;4.32;;;4.30;99.90;;;;;;6626234;88;20309;-72
2021/01/18 09:01:59;;;;;;;16.52;4.90;;;4.40;99.90;;;;;;6631327;89;21031;-72
2021/01/18 09:12:02;;;;;;;9.38;4.07;;;4.60;99.90;;;;;;6620289;89;20801;-72
2021/01/18 09:22:02;;;;;;;9.38;3.90;;;4.70;99.90;;;;;;6620925;89;20375;-72
2021/01/18 09:32:04;;;;;;;12.93;4.32;;;4.80;99.90;;;;;;6623226;89;20210;-72
2021/01/18 09:42:05;;;;;;;9.50;3.65;;;4.90;99.90;;;;;;6621405;89;20638;-72
2021/01/18 09:52:05;;;;;;;7.80;3.97;;;5.00;99.90;;;;;;6620703;89;20259;-72
2021/01/18 10:02:11;;;;;;;11.02;4.18;;;5.20;99.90;;;;;;6618430;88;20510;-72
2021/01/18 10:12:13;;;;;;;10.13;3.20;;;5.90;99.90;;;;;;6623048;88;20749;-72
2021/01/18 10:22:18;;;;;;;15.00;3.58;;;6.50;99.90;;;;;;6617573;89;20215;-72
2021/01/18 10:32:19;;;;;;;8.90;2.87;;;6.50;99.90;;;;;;6620290;89;20599;-72
2021/01/18 10:42:20;;;;;;;7.90;2.60;;;6.30;99.90;;;;;;6618661;88;20191;-74
2021/01/18 10:52:32;;;;;;;6.60;2.30;;;6.30;99.90;;;;;;6614438;89;20197;-72
2021/01/18 11:02:33;;;;;;;7.50;2.40;;;6.40;99.90;;;;;;6614080;89;20186;-72
2021/01/18 11:12:39;;;;;;;6.75;1.98;;;6.50;99.90;;;;;;6610172;89;20662;-72
2021/01/18 11:22:40;;;;;;;13.05;2.40;;;6.60;99.90;;;;;;6630155;88;20378;-72
2021/01/18 11:32:41;;;;;;;12.18;1.70;;;6.50;99.90;;;;;;6614909;89;20223;-72
2021/01/18 11:42:42;;;;;;;11.82;2.05;;;6.60;99.90;;;;;;6613816;88;20210;-72
2021/01/18 11:52:48;;;;;;;9.98;1.50;;;6.70;99.90;;;;;;6617251;89;20219;-76
2021/01/18 12:02:54;;;;;;;7.73;1.10;;;7.20;99.90;;;;;;6622791;89;20908;-76
2021/01/18 12:12:55;;;;;;;5.68;1.30;;;6.90;99.90;;;;;;6618298;89;20727;-75
2021/01/18 12:22:57;;;;;;;12.07;1.58;;;7.10;99.90;;;;;;6618644;89;20259;-75
2021/01/18 12:32:57;;;;;;;10.10;1.35;;;7.20;99.90;;;;;;6618452;89;20218;-74
2021/01/18 12:42:58;;;;;;;5.12;1.02;;;7.60;99.90;;;;;;6631638;89;20185;-74
2021/01/18 12:52:58;;;;;;;6.32;1.00;;;8.00;99.90;;;;;;6616819;89;20714;-74
2021/01/18 13:02:59;;;;;;;8.25;1.25;;;8.30;99.90;;;;;;6618745;88;20743;-73
2021/01/18 13:12:59;;;;;;;6.93;0.90;;;7.90;99.90;;;;;;6616276;89;20757;-74
2021/01/18 13:23:00;;;;;;;4.32;0.88;;;8.40;99.90;;;;;;6618712;89;20722;-73
2021/01/18 13:33:00;;;;;;;8.95;1.42;;;7.70;99.90;;;;;;6621285;89;20199;-73
2021/01/18 13:43:01;;;;;;;6.70;1.25;;;7.70;99.90;;;;;;6618116;88;20425;-74
2021/01/18 13:53:02;;;;;;;6.53;1.20;;;8.00;99.90;;;;;;6616116;89;20740;-74
2021/01/18 14:03:03;;;;;;;6.37;1.20;;;7.60;99.90;;;;;;6621477;89;20235;-74
2021/01/18 14:13:03;;;;;;;6.07;1.37;;;7.20;99.90;;;;;;6614872;88;21048;-74
2021/01/18 14:23:04;;;;;;;8.88;1.33;;;7.00;99.90;;;;;;6617199;89;20677;-75
2021/01/18 14:33:04;;;;;;;6.03;1.20;;;7.10;99.90;;;;;;6609905;89;20260;-76
2021/01/18 14:43:05;;;;;;;6.57;1.50;;;7.10;99.90;;;;;;6620134;89;20194;-76
2021/01/18 14:53:06;;;;;;;2.95;0.90;;;7.00;99.90;;;;;;6620883;89;21325;-76
2021/01/18 15:03:06;;;;;;;6.10;1.30;;;7.00;99.90;;;;;;6621168;89;20285;-76
2021/01/18 15:13:07;;;;;;;8.75;1.58;;;6.40;99.90;;;;;;6617801;89;20197;-77
2021/01/18 15:23:09;;;;;;;7.20;1.43;;;6.20;99.90;;;;;;6624733;89;20319;-76
2021/01/18 15:33:10;;;;;;;11.05;1.80;;;5.80;99.90;;;;;;6628190;88;20538;-77
2021/01/18 15:43:11;;;;;;;7.75;1.62;;;5.70;99.90;;;;;;6625232;89;20182;-76
2021/01/18 15:53:11;;;;;;;6.45;1.87;;;5.40;99.90;;;;;;6634902;89;20186;-77
2021/01/18 16:03:12;;;;;;;6.75;1.60;;;5.10;99.90;;;;;;6634255;89;20189;-76
2021/01/18 16:13:13;;;;;;;7.68;1.70;;;5.00;99.90;;;;;;6620581;88;20330;-76
2021/01/18 16:23:14;;;;;;;8.90;2.50;;;5.20;99.90;;;;;;6614743;89;20242;-76
2021/01/18 16:33:14;;;;;;;8.15;2.12;;;5.10;99.90;;;;;;6616796;88;20218;-75
2021/01/18 16:43:18;;;;;;;10.85;2.10;;;5.20;99.90;;;;;;6619048;89;20217;-76
2021/01/18 16:53:18;;;;;;;9.85;1.92;;;5.10;99.90;;;;;;6614646;89;20198;-74
2021/01/18 17:03:19;;;;;;;6.65;2.00;;;5.20;99.90;;;;;;6609212;89;20259;-75
2021/01/18 17:13:20;;;;;;;6.25;2.08;;;5.10;99.90;;;;;;6617816;89;20225;-76
2021/01/18 17:23:20;;;;;;;9.02;2.10;;;5.20;99.90;;;;;;6621336;89;20231;-75
2021/01/18 17:33:21;;;;;;;6.30;1.87;;;5.10;99.90;;;;;;6617593;88;20717;-76
2021/01/18 17:43:21;;;;;;;7.93;2.00;;;5.10;99.90;;;;;;6623603;89;20206;-75
2021/01/18 17:53:22;;;;;;;5.62;2.10;;;5.20;99.90;;;;;;6627717;77;20186;-75
2021/01/18 18:03:23;;;;;;;4.07;1.90;;;5.10;99.90;;;;;;6611028;89;20610;-75
2021/01/18 18:13:24;;;;;;;7.53;2.05;;;5.00;99.90;;;;;;6615926;89;20332;-74
2021/01/18 18:23:24;;;;;;;9.70;2.28;;;5.00;99.90;;;;;;6616930;89;20206;-75
2021/01/18 18:33:25;;;;;;;5.47;2.28;;;5.00;99.90;;;;;;6623847;89;20215;-75
2021/01/18 18:43:26;;;;;;;3.72;2.05;;;5.20;99.90;;;;;;6620306;88;20315;-74
2021/01/18 18:53:26;;;;;;;4.28;1.87;;;5.20;99.90;;;;;;6619682;88;20190;-74
2021/01/18 19:03:27;;;;;;;5.15;2.20;;;5.20;99.90;;;;;;6615414;89;20502;-73
2021/01/18 19:13:27;;;;;;;4.97;2.40;;;5.20;99.90;;;;;;6614908;89;20274;-73
2021/01/18 19:23:27;;;;;;;3.67;1.90;;;5.30;99.90;;;;;;6614825;89;20215;-74
2021/01/18 19:33:28;;;;;;;5.20;2.12;;;5.10;99.90;;;;;;6614011;89;20223;-75
2021/01/18 19:43:29;;;;;;;4.62;2.12;;;5.20;99.90;;;;;;6615718;89;20311;-75
2021/01/18 19:53:29;;;;;;;7.47;2.60;;;5.30;99.90;;;;;;6623979;88;20193;-76
2021/01/18 20:03:30;;;;;;;4.55;2.10;;;5.20;99.90;;;;;;6617053;89;20385;-75
2021/01/18 20:13:30;;;;;;;5.03;2.80;;;5.20;99.90;;;;;;6621289;89;20273;-75
2021/01/18 20:23:31;;;;;;;4.43;2.47;;;5.10;99.90;;;;;;6619161;89;20186;-74
2021/01/18 20:33:31;;;;;;;5.60;2.65;;;5.10;99.90;;;;;;6619703;89;20188;-74
2021/01/18 20:43:32;;;;;;;6.18;2.30;;;4.90;99.90;;;;;;6616783;89;20201;-75
2021/01/18 20:53:33;;;;;;;5.32;2.60;;;4.90;99.90;;;;;;6621274;89;20554;-74
2021/01/18 21:03:33;;;;;;;5.10;2.33;;;4.90;99.90;;;;;;6616884;88;20201;-77
2021/01/18 21:13:33;;;;;;;4.97;2.33;;;4.80;99.90;;;;;;6614588;89;20202;-75
2021/01/18 21:23:34;;;;;;;6.82;2.60;;;4.90;99.90;;;;;;6617534;89;20961;-76
2021/01/18 21:33:35;;;;;;;4.62;2.20;;;4.80;99.90;;;;;;6613881;89;20219;-75
2021/01/18 21:43:36;;;;;;;5.12;2.40;;;4.80;99.90;;;;;;6609420;89;20213;-75
2021/01/18 21:53:37;;;;;;;4.37;2.25;;;4.80;99.90;;;;;;6613248;88;20661;-74
2021/01/18 22:03:39;;;;;;;6.10;2.72;;;4.90;99.90;;;;;;6611505;88;20296;-75
2021/01/18 22:13:40;;;;;;;4.53;2.30;;;4.90;99.90;;;;;;6612046;89;20305;-75
2021/01/18 22:23:40;;;;;;;4.95;2.62;;;4.80;99.90;;;;;;6611087;88;20284;-75
2021/01/18 22:33:41;;;;;;;5.47;2.92;;;4.70;99.90;;;;;;6612527;88;20194;-75
2021/01/18 22:43:42;;;;;;;6.65;2.90;;;4.80;99.90;;;;;;6609339;89;20225;-75
2021/01/18 22:53:43;;;;;;;5.25;2.62;;;4.90;99.90;;;;;;6612013;89;20732;-75
2021/01/18 23:03:44;;;;;;;6.30;2.83;;;4.90;99.90;;;;;;6616573;89;20185;-75
2021/01/18 23:13:44;;;;;;;5.05;2.72;;;4.90;99.90;;;;;;6617159;89;20332;-74
2021/01/18 23:23:45;;;;;;;6.43;2.55;;;5.00;99.90;;;;;;6614374;89;20198;-74
2021/01/18 23:33:49;;;;;;;3.87;2.40;;;5.10;99.90;;;;;;6619407;89;20209;-74
2021/01/18 23:43:50;;;;;;;5.72;1.90;;;5.10;99.90;;;;;;6621049;89;20701;-74
2021/01/18 23:53:50;;;;;;;5.18;2.17;;;5.00;99.90;;;;;;6622192;88;20285;-74
